createdAt,value
2018-05-09T00:01:19.165Z,99037.00
2018-05-09T00:03:46.823Z,99036.83
2018-05-09T00:06:14.512Z,99038.46
2018-05-09T00:08:42.143Z,99038.76
2018-05-09T00:11:09.669Z,99038.55
2018-05-09T00:13:37.388Z,99035.27
2018-05-09T00:16:04.943Z,99037.30
2018-05-09T00:18:32.525Z,99043.00
2018-05-09T00:21:00.111Z,99041.13
2018-05-09T00:23:27.698Z,99039.97
2018-05-09T00:25:55.245Z,99040.17
2018-05-09T00:28:22.863Z,99030.57
2018-05-09T00:30:50.409Z,99030.81
2018-05-09T00:33:17.967Z,99030.52
2018-05-09T00:35:45.487Z,99032.10
2018-05-09T00:38:13.151Z,99031.92
2018-05-09T00:40:40.765Z,99033.38
2018-05-09T00:43:08.385Z,99034.95
2018-05-09T00:45:35.942Z,99033.91
2018-05-09T00:48:03.488Z,99026.19
2018-05-09T00:50:31.100Z,99028.62
2018-05-09T00:52:58.692Z,99022.63
2018-05-09T00:55:26.276Z,99024.63
2018-05-09T00:57:53.821Z,99029.02
2018-05-09T01:00:21.398Z,99026.63
2018-05-09T01:02:48.936Z,99024.25
2018-05-09T01:05:16.488Z,99018.37
2018-05-09T01:07:44.052Z,99030.09
2018-05-09T01:10:11.598Z,99021.44
2018-05-09T01:12:39.222Z,99023.88
2018-05-09T01:15:06.769Z,99018.80
2018-05-09T01:17:34.320Z,99019.82
2018-05-09T01:20:01.888Z,99016.11
2018-05-09T01:22:29.453Z,99017.52
2018-05-09T01:24:57.018Z,99016.77
2018-05-09T01:27:24.565Z,99012.48
2018-05-09T01:29:52.130Z,99012.71
2018-05-09T01:32:19.781Z,99012.91
2018-05-09T01:34:47.319Z,99013.52
2018-05-09T01:37:14.865Z,99009.27
2018-05-09T01:39:42.400Z,99007.14
2018-05-09T01:42:09.943Z,99005.52
2018-05-09T01:44:37.505Z,99002.14
2018-05-09T01:47:05.043Z,98998.70
2018-05-09T01:49:33.319Z,98999.69
2018-05-09T01:52:00.871Z,98992.25
2018-05-09T01:54:28.457Z,98998.66
2018-05-09T01:56:55.995Z,98994.76
2018-05-09T01:59:23.518Z,98991.80
2018-05-09T02:01:52.422Z,98997.27
2018-05-09T02:04:19.980Z,99001.36
2018-05-09T02:06:47.517Z,99000.19
2018-05-09T02:09:15.965Z,98996.28
2018-05-09T02:11:43.592Z,99005.72
2018-05-09T02:14:11.185Z,98993.84
2018-05-09T02:16:38.756Z,98998.40
2018-05-09T02:19:06.304Z,99003.41
2018-05-09T02:21:33.893Z,99000.79
2018-05-09T02:24:01.538Z,99000.03
2018-05-09T02:26:29.038Z,98997.52
2018-05-09T02:28:56.601Z,98994.53
2018-05-09T02:31:24.218Z,98994.19
2018-05-09T02:33:51.778Z,98989.94
2018-05-09T02:36:19.332Z,98990.84
2018-05-09T02:38:46.883Z,98992.78
2018-05-09T02:41:14.473Z,98993.38
2018-05-09T02:43:42.012Z,98988.64
2018-05-09T02:46:09.591Z,98992.28
2018-05-09T02:48:37.181Z,98994.55
2018-05-09T02:51:04.748Z,98999.02
2018-05-09T02:53:32.301Z,98992.01
2018-05-09T02:55:59.916Z,98991.62
2018-05-09T02:58:27.458Z,98989.95
2018-05-09T03:00:55.037Z,98991.70
2018-05-09T03:03:22.593Z,98990.86
2018-05-09T03:05:50.186Z,98987.48
2018-05-09T03:08:18.561Z,98995.83
2018-05-09T03:10:46.170Z,98997.58
2018-05-09T03:13:13.973Z,98988.81
2018-05-09T03:15:41.585Z,98991.84
2018-05-09T03:18:09.123Z,99000.19
2018-05-09T03:20:36.694Z,99006.41
2018-05-09T03:23:04.235Z,99005.08
2018-05-09T03:25:31.805Z,99001.59
2018-05-09T03:27:59.355Z,99006.52
2018-05-09T03:30:26.974Z,99002.46
2018-05-09T03:32:54.556Z,99001.20
2018-05-09T03:35:22.145Z,98996.84
2018-05-09T03:37:49.752Z,99003.09
2018-05-09T03:40:17.356Z,99000.63
2018-05-09T03:42:44.912Z,99011.23
2018-05-09T03:45:12.463Z,99008.52
2018-05-09T03:47:40.038Z,99012.60
2018-05-09T03:50:07.640Z,99010.41
2018-05-09T03:52:35.272Z,99012.22
2018-05-09T03:55:02.865Z,99009.56
2018-05-09T03:57:30.482Z,99013.55
2018-05-09T03:59:58.055Z,99011.39
2018-05-09T04:02:44.158Z,99020.63
2018-05-09T04:05:23.284Z,99014.53
2018-05-09T04:08:02.602Z,99020.67
2018-05-09T04:10:30.989Z,99024.30
2018-05-09T04:12:58.582Z,99028.39
2018-05-09T04:15:26.140Z,99026.58
2018-05-09T04:17:53.733Z,99028.77
2018-05-09T04:20:21.297Z,99032.27
2018-05-09T04:22:48.900Z,99038.89
2018-05-09T04:25:16.519Z,99036.59
2018-05-09T04:27:44.105Z,99044.40
2018-05-09T04:30:11.697Z,99044.78
2018-05-09T04:32:39.267Z,99040.58
2018-05-09T04:35:06.857Z,99040.89
2018-05-09T04:37:34.445Z,99037.64
2018-05-09T04:40:02.050Z,99032.79
2018-05-09T04:42:29.618Z,99038.82
2018-05-09T04:44:57.221Z,99033.82
2018-05-09T04:47:24.820Z,99035.45
2018-05-09T04:49:52.450Z,99029.16
2018-05-09T04:52:20.094Z,99030.31
2018-05-09T04:54:47.775Z,99031.84
2018-05-09T04:57:15.415Z,99039.19
2018-05-09T04:59:42.994Z,99035.52
2018-05-09T05:02:10.623Z,99034.88
2018-05-09T05:04:38.170Z,99035.07
2018-05-09T05:07:05.786Z,99033.94
2018-05-09T05:09:33.621Z,99037.20
2018-05-09T05:12:02.579Z,99038.68
2018-05-09T05:14:30.160Z,99039.21
2018-05-09T05:19:29.552Z,99038.94
2018-05-09T05:21:57.126Z,99040.41
2018-05-09T05:24:24.747Z,99033.35
2018-05-09T05:26:52.415Z,99035.62
2018-05-09T05:29:21.343Z,99034.66
2018-05-09T05:31:48.989Z,99042.08
2018-05-09T05:34:17.036Z,99046.96
2018-05-09T05:36:44.593Z,99045.92
2018-05-09T05:39:12.358Z,99042.58
2018-05-09T05:41:39.988Z,99045.95
2018-05-09T05:44:08.388Z,99045.11
2018-05-09T05:46:36.014Z,99047.62
2018-05-09T05:49:03.602Z,99044.83
2018-05-09T05:51:31.204Z,99045.47
2018-05-09T05:53:58.813Z,99045.16
2018-05-09T05:56:26.376Z,99047.84
2018-05-09T05:58:53.928Z,99043.42
2018-05-09T06:01:21.512Z,99043.16
2018-05-09T06:03:49.083Z,99038.72
2018-05-09T06:06:16.676Z,99041.48
2018-05-09T06:08:44.249Z,99037.27
2018-05-09T06:11:11.796Z,99045.20
2018-05-09T06:13:39.440Z,99040.86
2018-05-09T06:16:07.384Z,99043.58
2018-05-09T06:18:35.023Z,99040.46
2018-05-09T06:21:02.573Z,99043.78
2018-05-09T06:23:30.241Z,99045.16
2018-05-09T06:25:57.879Z,99041.87
2018-05-09T06:28:25.468Z,99043.38
2018-05-09T06:30:53.123Z,99045.08
2018-05-09T06:33:20.728Z,99042.20
2018-05-09T06:35:48.266Z,99045.59
2018-05-09T06:38:15.860Z,99048.48
2018-05-09T06:40:43.396Z,99049.88
2018-05-09T06:43:11.047Z,99063.53
2018-05-09T06:45:38.608Z,99053.00
2018-05-09T06:48:06.225Z,99058.05
2018-05-09T06:50:34.686Z,99061.90
2018-05-09T06:53:02.232Z,99055.97
2018-05-09T06:55:29.872Z,99053.30
2018-05-09T06:57:57.458Z,99036.88
2018-05-09T07:00:25.036Z,99054.86
2018-05-09T07:02:52.689Z,99058.88
2018-05-09T07:05:20.308Z,99059.77
2018-05-09T07:07:47.853Z,99064.71
2018-05-09T07:10:15.461Z,99069.95
2018-05-09T07:12:43.141Z,99063.66
2018-05-09T07:15:10.690Z,99056.23
2018-05-09T07:17:38.302Z,99070.58
2018-05-09T07:20:05.944Z,99066.21
2018-05-09T07:22:33.569Z,99056.27
2018-05-09T07:25:01.193Z,99051.91
2018-05-09T07:27:28.779Z,99055.61
2018-05-09T07:29:56.355Z,99059.10
2018-05-09T07:32:23.879Z,99057.45
2018-05-09T07:34:51.742Z,99047.26
2018-05-09T07:37:19.277Z,99053.59
2018-05-09T07:39:46.818Z,99044.06
2018-05-09T07:42:14.420Z,99053.72
2018-05-09T07:44:41.928Z,99051.30
2018-05-09T07:47:09.450Z,99049.22
2018-05-09T07:49:37.001Z,99054.16
2018-05-09T07:52:04.519Z,99048.72
2018-05-09T07:54:32.124Z,99053.88
2018-05-09T07:56:59.657Z,99047.67
2018-05-09T07:59:27.205Z,99042.21
2018-05-09T08:01:54.745Z,99042.66
2018-05-09T08:04:22.309Z,99050.70
2018-05-09T08:06:49.875Z,99038.40
2018-05-09T08:09:17.437Z,99050.40
2018-05-09T08:11:44.983Z,99047.19
2018-05-09T08:14:12.551Z,99047.53
2018-05-09T08:16:40.086Z,99046.45
2018-05-09T08:19:07.665Z,99044.82
2018-05-09T08:21:35.235Z,99055.44
2018-05-09T08:24:05.422Z,99045.70
2018-05-09T08:26:33.124Z,99051.84
2018-05-09T08:29:00.703Z,99053.01
2018-05-09T08:31:28.355Z,99059.49
2018-05-09T08:33:55.963Z,99053.36
2018-05-09T08:36:24.403Z,99052.77
2018-05-09T08:38:51.996Z,99055.06
2018-05-09T08:41:19.559Z,99053.49
2018-05-09T08:43:47.118Z,99057.09
2018-05-09T08:46:14.728Z,99054.70
2018-05-09T08:48:42.359Z,99050.86
2018-05-09T08:51:09.908Z,99052.16
2018-05-09T08:53:37.434Z,99050.60
2018-05-09T08:56:05.648Z,99045.91
2018-05-09T08:58:33.211Z,99048.20
2018-05-09T09:01:00.916Z,99049.05
2018-05-09T09:03:28.456Z,99048.43
2018-05-09T09:05:56.017Z,99049.57
2018-05-09T09:08:23.585Z,99049.73
2018-05-09T09:10:51.140Z,99044.12
2018-05-09T09:13:18.680Z,99039.23
2018-05-09T09:15:46.224Z,99044.09
2018-05-09T09:18:13.774Z,99044.58
2018-05-09T09:20:41.335Z,99038.75
2018-05-09T09:23:08.899Z,99037.99
2018-05-09T09:25:37.553Z,99046.50
2018-05-09T09:28:05.080Z,99041.58
2018-05-09T09:30:32.637Z,99036.95
2018-05-09T09:33:00.159Z,99036.76
2018-05-09T09:35:27.720Z,99029.69
2018-05-09T09:37:55.282Z,99023.89
2018-05-09T09:40:22.929Z,99018.37
2018-05-09T09:42:50.478Z,99013.69
2018-05-09T09:45:18.139Z,99018.74
2018-05-09T09:47:45.830Z,99015.33
2018-05-09T09:50:13.414Z,99021.41
2018-05-09T09:52:41.077Z,99018.05
2018-05-09T09:55:08.610Z,99011.30
2018-05-09T09:57:36.156Z,99012.80
2018-05-09T10:00:03.715Z,99008.92
2018-05-09T10:02:31.280Z,99004.28
2018-05-09T10:04:58.812Z,99006.72
2018-05-09T10:07:26.386Z,99010.52
2018-05-09T10:09:53.908Z,99009.58
2018-05-09T10:12:21.513Z,98990.13
2018-05-09T10:14:49.057Z,98992.17
2018-05-09T10:17:16.650Z,98986.47
2018-05-09T10:19:44.185Z,98985.19
2018-05-09T10:22:11.735Z,98984.83
2018-05-09T10:24:39.299Z,98984.80
2018-05-09T10:27:07.042Z,98981.63
2018-05-09T10:29:34.611Z,98979.85
2018-05-09T10:32:02.203Z,98972.92
2018-05-09T10:34:29.740Z,98969.70
2018-05-09T10:36:57.387Z,98963.89
2018-05-09T10:39:24.936Z,98965.80
2018-05-09T10:41:52.518Z,98957.89
2018-05-09T10:44:20.087Z,98972.30
2018-05-09T10:46:47.740Z,98966.72
2018-05-09T10:49:15.308Z,98959.45
2018-05-09T10:51:42.851Z,98955.89
2018-05-09T10:54:10.395Z,98951.34
2018-05-09T10:56:37.976Z,98952.26
2018-05-09T10:59:05.517Z,98956.41
2018-05-09T11:01:33.093Z,98947.43
2018-05-09T11:04:00.659Z,98944.72
2018-05-09T11:06:28.250Z,98950.13
2018-05-09T11:08:55.798Z,98936.02
2018-05-09T11:11:23.350Z,98936.61
2018-05-09T11:13:50.891Z,98931.00
2018-05-09T11:16:18.399Z,98925.02
2018-05-09T11:18:46.047Z,98931.42
2018-05-09T11:21:13.622Z,98923.04
2018-05-09T11:23:41.160Z,98930.70
2018-05-09T11:26:10.243Z,98933.75
2018-05-09T11:28:37.828Z,98921.78
2018-05-09T11:31:05.426Z,98923.28
2018-05-09T11:33:33.019Z,98918.53
2018-05-09T11:36:00.555Z,98920.65
2018-05-09T11:38:28.126Z,98920.16
2018-05-09T11:40:55.664Z,98911.48
2018-05-09T11:43:23.217Z,98906.27
2018-05-09T11:45:50.765Z,98910.70
2018-05-09T11:48:19.490Z,98887.06
2018-05-09T11:50:47.043Z,98887.97
2018-05-09T11:53:15.095Z,98884.17
2018-05-09T11:55:42.703Z,98873.44
2018-05-09T11:58:10.264Z,98879.33
2018-05-09T12:00:37.828Z,98885.54
2018-05-09T12:03:05.382Z,98881.00
2018-05-09T12:05:32.942Z,98881.19
2018-05-09T12:08:01.437Z,98880.33
2018-05-09T12:10:29.628Z,98872.76
2018-05-09T12:12:57.208Z,98870.06
2018-05-09T12:15:24.782Z,98876.66
2018-05-09T12:17:52.358Z,98868.61
2018-05-09T12:20:19.882Z,98867.78
2018-05-09T12:22:47.429Z,98862.98
2018-05-09T12:25:14.980Z,98866.83
2018-05-09T12:27:42.617Z,98862.84
2018-05-09T12:30:10.161Z,98857.87
2018-05-09T12:32:37.717Z,98850.16
2018-05-09T12:35:05.241Z,98848.11
2018-05-09T12:37:32.812Z,98852.36
2018-05-09T12:40:00.454Z,98852.48
2018-05-09T12:42:28.119Z,98854.48
2018-05-09T12:44:56.261Z,98852.13
2018-05-09T12:47:23.814Z,98845.09
2018-05-09T12:49:51.461Z,98848.34
2018-05-09T12:52:19.032Z,98829.75
2018-05-09T12:54:46.578Z,98844.69
2018-05-09T12:57:15.078Z,98837.66
2018-05-09T12:59:42.637Z,98840.70
2018-05-09T13:02:10.247Z,98827.75
2018-05-09T13:04:37.945Z,98850.69
2018-05-09T13:07:05.513Z,98832.30
2018-05-09T13:09:33.422Z,98827.77
2018-05-09T13:12:00.940Z,98828.48
2018-05-09T13:14:28.478Z,98825.29
2018-05-09T13:16:56.057Z,98825.83
2018-05-09T13:19:23.610Z,98827.63
2018-05-09T13:21:51.129Z,98831.06
2018-05-09T13:24:18.705Z,98814.59
2018-05-09T13:26:46.297Z,98821.84
2018-05-09T13:29:13.905Z,98820.99
2018-05-09T13:31:41.501Z,98811.14
2018-05-09T13:34:09.024Z,98820.55
2018-05-09T13:36:36.615Z,98816.50
2018-05-09T13:39:04.251Z,98811.33
2018-05-09T13:41:31.777Z,98803.21
2018-05-09T13:44:00.194Z,98798.53
2018-05-09T13:46:27.842Z,98804.55
2018-05-09T13:48:55.309Z,98797.70
2018-05-09T13:51:22.855Z,98797.72
2018-05-09T13:53:50.518Z,98791.41
2018-05-09T13:56:17.955Z,98794.51
2018-05-09T13:58:45.499Z,98782.34
2018-05-09T14:01:13.022Z,98786.08
2018-05-09T14:03:40.598Z,98780.16
2018-05-09T14:06:08.196Z,98770.58
2018-05-09T14:08:35.776Z,98775.27
2018-05-09T14:11:03.316Z,98769.70
2018-05-09T14:13:30.893Z,98770.92
2018-05-09T14:15:58.442Z,98773.05
2018-05-09T14:18:26.065Z,98757.50
2018-05-09T14:20:53.704Z,98771.88
2018-05-09T14:23:21.230Z,98772.23
2018-05-09T14:25:48.782Z,98770.70
2018-05-09T14:28:16.316Z,98767.87
2018-05-09T14:30:46.407Z,98763.84
2018-05-09T14:33:14.145Z,98758.92
2018-05-09T14:35:41.709Z,98756.11
2018-05-09T14:38:09.377Z,98756.77
2018-05-09T14:40:36.989Z,98757.57
2018-05-09T14:43:04.504Z,98757.29
2018-05-09T14:45:32.086Z,98755.52
2018-05-09T14:48:02.487Z,98747.77
2018-05-09T14:50:30.124Z,98747.74
2018-05-09T14:52:57.676Z,98762.81
2018-05-09T14:55:25.265Z,98742.70
2018-05-09T14:57:52.799Z,98746.94
2018-05-09T15:00:20.469Z,98751.08
2018-05-09T15:02:48.001Z,98749.20
2018-05-09T15:05:15.583Z,98748.46
2018-05-09T15:07:43.167Z,98741.73
2018-05-09T15:10:10.782Z,98749.56
2018-05-09T15:12:38.435Z,98738.44
2018-05-09T15:15:06.474Z,98747.64
2018-05-09T15:17:34.067Z,98745.54
2018-05-09T15:20:01.720Z,98745.63
2018-05-09T15:22:29.412Z,98742.58
2018-05-09T15:24:57.078Z,98749.88
2018-05-09T15:27:24.725Z,98738.84
2018-05-09T15:29:52.362Z,98729.98
2018-05-09T15:32:19.971Z,98741.60
2018-05-09T15:34:47.595Z,98739.44
2018-05-09T15:37:15.209Z,98744.93
2018-05-09T15:39:42.872Z,98743.42
2018-05-09T15:42:10.451Z,98742.83
2018-05-09T15:44:38.104Z,98744.87
2018-05-09T15:47:06.008Z,98740.22
2018-05-09T15:49:33.703Z,98741.75
2018-05-09T15:52:01.442Z,98733.11
2018-05-09T15:54:29.294Z,98738.18
2018-05-09T15:56:57.010Z,98732.44
2018-05-09T15:59:24.972Z,98731.85
2018-05-09T16:01:52.624Z,98730.67
2018-05-09T16:04:21.004Z,98733.11
2018-05-09T16:06:48.536Z,98736.82
2018-05-09T16:09:16.099Z,98731.70
2018-05-09T16:11:43.693Z,98737.61
2018-05-09T16:14:11.268Z,98723.58
2018-05-09T16:16:38.917Z,98729.16
2018-05-09T16:19:06.441Z,98727.86
2018-05-09T16:21:34.016Z,98733.83
2018-05-09T16:24:02.485Z,98724.95
2018-05-09T16:26:30.112Z,98728.92
2018-05-09T16:28:59.573Z,98724.78
2018-05-09T16:31:27.114Z,98727.14
2018-05-09T16:33:54.661Z,98725.53
2018-05-09T16:36:22.315Z,98717.52
2018-05-09T16:38:49.794Z,98721.03
2018-05-09T16:41:17.364Z,98726.02
2018-05-09T16:43:44.942Z,98724.67
2018-05-09T16:46:12.498Z,98725.68
2018-05-09T16:48:40.033Z,98724.73
2018-05-09T16:51:07.599Z,98723.80
2018-05-09T16:53:35.163Z,98721.44
2018-05-09T16:56:02.752Z,98725.05
2018-05-09T16:58:30.325Z,98718.81
2018-05-09T17:00:57.868Z,98720.31
2018-05-09T17:03:25.444Z,98721.41
2018-05-09T17:05:53.013Z,98722.14
2018-05-09T17:08:20.541Z,98729.48
2018-05-09T17:10:48.130Z,98729.48
2018-05-09T17:13:15.647Z,98732.41
2018-05-09T17:15:43.868Z,98725.92
2018-05-09T17:18:11.410Z,98727.75
2018-05-09T17:20:39.032Z,98722.52
2018-05-09T17:23:06.608Z,98721.31
2018-05-09T17:25:34.152Z,98718.13
2018-05-09T17:28:01.719Z,98705.64
2018-05-09T17:30:29.347Z,98719.79
2018-05-09T17:32:56.869Z,98717.04
2018-05-09T17:35:24.426Z,98712.34
2018-05-09T17:37:52.000Z,98715.16
2018-05-09T17:40:19.559Z,98708.36
2018-05-09T17:42:47.112Z,98711.34
2018-05-09T17:45:14.826Z,98733.02
2018-05-09T17:47:42.412Z,98725.83
2018-05-09T17:50:10.000Z,98723.58
2018-05-09T17:52:37.575Z,98719.05
2018-05-09T17:55:05.177Z,98716.45
2018-05-09T17:57:32.782Z,98719.78
2018-05-09T18:00:00.367Z,98722.66
2018-05-09T18:02:27.950Z,98721.56
2018-05-09T18:04:55.516Z,98720.20
2018-05-09T18:07:23.104Z,98717.03
2018-05-09T18:09:50.689Z,98712.45
2018-05-09T18:12:18.226Z,98712.39
2018-05-09T18:14:45.819Z,98711.50
2018-05-09T18:17:13.571Z,98716.47
2018-05-09T18:19:41.176Z,98710.98
2018-05-09T18:22:08.755Z,98711.78
2018-05-09T18:24:36.316Z,98712.58
2018-05-09T18:27:03.882Z,98715.20
2018-05-09T18:29:31.450Z,98712.06
2018-05-09T18:31:59.068Z,98712.66
2018-05-09T18:34:26.865Z,98714.52
2018-05-09T18:36:54.447Z,98710.86
2018-05-09T18:39:21.977Z,98713.99
2018-05-09T18:41:49.517Z,98714.09
2018-05-09T18:44:17.119Z,98711.81
2018-05-09T18:46:44.673Z,98707.91
2018-05-09T18:49:12.249Z,98711.08
2018-05-09T18:51:39.792Z,98713.30
2018-05-09T18:54:07.475Z,98717.70
2018-05-09T18:56:35.007Z,98726.91
2018-05-09T18:59:02.576Z,98713.31
2018-05-09T19:01:30.159Z,98729.43
2018-05-09T19:03:57.738Z,98730.27
2018-05-09T19:06:25.425Z,98732.05
2018-05-09T19:08:52.953Z,98731.07
2018-05-09T19:11:20.496Z,98731.78
2018-05-09T19:13:48.076Z,98731.47
2018-05-09T19:16:15.659Z,98732.11
2018-05-09T19:18:43.259Z,98734.17
2018-05-09T19:21:10.907Z,98729.51
2018-05-09T19:23:38.438Z,98730.47
2018-05-09T19:26:06.053Z,98730.63
2018-05-09T19:28:33.659Z,98732.88
2018-05-09T19:31:01.246Z,98734.86
2018-05-09T19:33:29.128Z,98732.34
2018-05-09T19:35:56.902Z,98732.77
2018-05-09T19:38:24.466Z,98734.88
2018-05-09T19:40:52.063Z,98735.59
2018-05-09T19:43:19.657Z,98735.85
2018-05-09T19:45:47.199Z,98729.66
2018-05-09T19:48:14.824Z,98739.47
2018-05-09T19:50:42.380Z,98743.28
2018-05-09T19:53:09.951Z,98736.58
2018-05-09T19:55:37.517Z,98742.36
2018-05-09T19:58:05.085Z,98743.95
2018-05-09T20:00:32.674Z,98754.28
2018-05-09T20:03:00.260Z,98753.94
2018-05-09T20:05:27.846Z,98743.71
2018-05-09T20:07:55.466Z,98755.34
2018-05-09T20:10:23.054Z,98755.84
2018-05-09T20:12:50.645Z,98752.23
2018-05-09T20:15:18.264Z,98749.67
2018-05-09T20:17:45.905Z,98753.12
2018-05-09T20:20:13.483Z,98745.42
2018-05-09T20:22:41.057Z,98752.38
2018-05-09T20:25:08.675Z,98752.53
2018-05-09T20:27:36.264Z,98755.56
2018-05-09T20:30:03.837Z,98752.08
2018-05-09T20:32:42.418Z,98745.30
2018-05-09T20:35:09.976Z,98746.06
2018-05-09T20:37:37.565Z,98747.59
2018-05-09T20:40:05.299Z,98745.42
2018-05-09T20:42:32.889Z,98746.76
2018-05-09T20:45:00.448Z,98748.80
2018-05-09T20:47:27.988Z,98745.39
2018-05-09T20:49:55.552Z,98748.35
2018-05-09T20:52:23.109Z,98745.66
2018-05-09T20:54:50.674Z,98740.28
2018-05-09T20:57:18.355Z,98745.26
2018-05-09T20:59:45.934Z,98749.38
2018-05-09T21:02:13.582Z,98748.34
2018-05-09T21:04:41.243Z,98744.89
2018-05-09T21:07:08.857Z,98746.44
2018-05-09T21:09:36.458Z,98745.80
2018-05-09T21:12:09.888Z,98753.54
2018-05-09T21:14:37.602Z,98748.94
2018-05-09T21:17:05.179Z,98751.95
2018-05-09T21:19:32.781Z,98754.62
2018-05-09T21:22:00.389Z,98755.10
2018-05-09T21:24:28.011Z,98755.97
2018-05-09T21:26:55.603Z,98761.45
2018-05-09T21:29:23.157Z,98760.80
2018-05-09T21:31:50.773Z,98762.20
2018-05-09T21:34:18.314Z,98761.78
2018-05-09T21:36:45.874Z,98756.06
2018-05-09T21:39:13.425Z,98762.55
2018-05-09T21:41:40.947Z,98759.45
2018-05-09T21:44:08.555Z,98756.00
2018-05-09T21:46:36.144Z,98751.52
2018-05-09T21:49:03.669Z,98758.91
2018-05-09T21:51:31.229Z,98756.91
2018-05-09T21:53:58.770Z,98763.19
2018-05-09T21:56:26.324Z,98759.23
2018-05-09T21:58:53.860Z,98756.50
2018-05-09T22:01:23.254Z,98758.13
2018-05-09T22:03:50.825Z,98752.69
2018-05-09T22:06:18.401Z,98754.89
2018-05-09T22:08:46.139Z,98751.28
2018-05-09T22:11:13.677Z,98755.93
2018-05-09T22:13:41.232Z,98754.80
2018-05-09T22:16:08.808Z,98752.78
2018-05-09T22:18:36.355Z,98753.34
2018-05-09T22:21:03.940Z,98754.90
2018-05-09T22:23:31.485Z,98755.38
2018-05-09T22:25:59.062Z,98757.13
2018-05-09T22:28:26.629Z,98753.68
2018-05-09T22:30:54.205Z,98752.10
2018-05-09T22:33:21.842Z,98747.85
2018-05-09T22:35:49.411Z,98741.81
2018-05-09T22:38:17.075Z,98739.28
2018-05-09T22:40:44.651Z,98733.70
2018-05-09T22:43:12.196Z,98733.97
2018-05-09T22:45:39.832Z,98735.98
2018-05-09T22:48:07.408Z,98733.55
2018-05-09T22:50:34.984Z,98726.27
2018-05-09T22:53:02.533Z,98728.58
2018-05-09T22:55:30.124Z,98725.14
2018-05-09T22:57:57.715Z,98726.30
2018-05-09T23:00:25.995Z,98727.91
2018-05-09T23:02:53.576Z,98731.83
2018-05-09T23:05:21.126Z,98729.53
2018-05-09T23:07:48.673Z,98732.09
2018-05-09T23:10:16.341Z,98730.83
2018-05-09T23:12:43.863Z,98729.05
2018-05-09T23:15:11.405Z,98733.55
2018-05-09T23:17:38.976Z,98737.47
2018-05-09T23:20:06.509Z,98731.25
2018-05-09T23:22:34.061Z,98733.56
2018-05-09T23:25:01.608Z,98740.30
2018-05-09T23:27:29.193Z,98740.06
2018-05-09T23:29:56.762Z,98748.65
2018-05-09T23:32:24.341Z,98747.98
2018-05-09T23:34:51.914Z,98742.66
2018-05-09T23:37:19.533Z,98743.86
2018-05-09T23:39:48.150Z,98744.80
2018-05-09T23:42:15.721Z,98746.20
2018-05-09T23:44:43.281Z,98743.13
2018-05-09T23:47:10.853Z,98741.09
2018-05-09T23:49:38.393Z,98745.20
2018-05-09T23:52:06.008Z,98739.61
2018-05-09T23:54:33.512Z,98745.06
2018-05-09T23:57:01.082Z,98744.31
2018-05-09T23:59:28.616Z,98752.69
